createdAt,value
2022-11-05T00:02:34.608Z,100250.34
2022-11-05T00:05:16.729Z,100263.63
2022-11-05T00:08:03.187Z,100261.19
2022-11-05T00:10:33.967Z,100260.47
2022-11-05T00:13:16.229Z,100254.44
2022-11-05T00:15:58.256Z,100268.53
2022-11-05T00:18:30.631Z,100260.75
2022-11-05T00:21:00.579Z,100263.56
2022-11-05T00:23:42.872Z,100267.22
2022-11-05T00:26:14.319Z,100254.22
2022-11-05T00:28:44.764Z,100267.53
2022-11-05T00:31:16.109Z,100266.78
2022-11-05T00:33:48.243Z,100273.81
2022-11-05T00:36:17.798Z,100275.59
2022-11-05T00:38:47.418Z,100281.84
2022-11-05T00:41:18.154Z,100286.34
2022-11-05T00:44:00.178Z,100295.19
2022-11-05T00:46:29.703Z,100303.25
2022-11-05T00:49:14.574Z,100305.97
2022-11-05T00:51:44.110Z,100310.44
2022-11-05T00:54:13.656Z,100318.41
2022-11-05T00:56:43.275Z,100328.91
2022-11-05T00:59:12.874Z,100322.81
2022-11-05T01:01:42.515Z,100326.34
2022-11-05T01:04:15.205Z,100324.59
2022-11-05T01:06:44.749Z,100329.03
2022-11-05T01:09:14.338Z,100328.19
2022-11-05T01:11:46.057Z,100329.97
2022-11-05T01:14:17.349Z,100332.47
2022-11-05T01:16:47.826Z,100335.78
2022-11-05T01:19:20.058Z,100332.91
2022-11-05T01:21:49.935Z,100329.25
2022-11-05T01:24:19.555Z,100334.50
2022-11-05T01:26:49.172Z,100331.94
2022-11-05T01:29:18.749Z,100334.69
2022-11-05T01:31:48.483Z,100345.28
2022-11-05T01:34:20.889Z,100343.63
2022-11-05T01:36:50.517Z,100347.22
2022-11-05T01:39:20.114Z,100354.28
2022-11-05T01:41:49.672Z,100355.22
2022-11-05T01:44:49.850Z,100358.69
2022-11-05T01:47:26.885Z,100362.97
2022-11-05T01:50:02.118Z,100355.94
2022-11-05T01:52:32.995Z,100364.75
2022-11-05T01:55:02.973Z,100364.84
2022-11-05T01:57:32.642Z,100374.44
2022-11-05T02:00:02.851Z,100368.16
2022-11-05T02:02:42.795Z,100373.19
2022-11-05T02:05:16.028Z,100372.16
2022-11-05T02:07:47.060Z,100371.22
2022-11-05T02:10:19.130Z,100374.56
2022-11-05T02:12:50.320Z,100376.22
2022-11-05T02:15:24.021Z,100371.72
2022-11-05T02:18:01.453Z,100376.00
2022-11-05T02:20:37.559Z,100382.06
2022-11-05T02:23:39.609Z,100391.47
2022-11-05T02:26:27.863Z,100382.41
2022-11-05T02:29:27.513Z,100386.47
2022-11-05T02:32:03.037Z,100382.78
2022-11-05T02:34:38.569Z,100383.44
2022-11-05T02:37:14.013Z,100389.44
2022-11-05T02:39:50.085Z,100392.03
2022-11-05T02:42:26.741Z,100390.31
2022-11-05T02:45:00.076Z,100392.13
2022-11-05T02:47:38.218Z,100387.75
2022-11-05T02:50:19.329Z,100392.91
2022-11-05T02:52:56.651Z,100384.19
2022-11-05T02:55:30.363Z,100385.97
2022-11-05T02:58:00.389Z,100383.34
2022-11-05T03:00:44.000Z,100385.06
2022-11-05T03:03:20.591Z,100387.66
2022-11-05T03:06:02.099Z,100386.75
2022-11-05T03:08:42.435Z,100386.72
2022-11-05T03:11:16.072Z,100397.22
2022-11-05T03:13:52.883Z,100384.13
2022-11-05T03:16:25.011Z,100391.09
2022-11-05T03:19:02.295Z,100384.84
2022-11-05T03:21:38.833Z,100380.41
2022-11-05T03:24:13.404Z,100382.00
2022-11-05T03:26:47.177Z,100382.91
2022-11-05T03:29:20.925Z,100387.28
2022-11-05T03:31:51.681Z,100392.50
2022-11-05T03:34:29.623Z,100386.28
2022-11-05T03:37:00.181Z,100389.72
2022-11-05T03:39:33.431Z,100382.66
2022-11-05T03:42:04.731Z,100389.69
2022-11-05T03:44:36.971Z,100383.59
2022-11-05T03:47:09.295Z,100390.72
2022-11-05T03:49:43.647Z,100409.34
2022-11-05T03:52:15.917Z,100406.97
2022-11-05T03:54:45.501Z,100416.78
2022-11-05T03:57:19.022Z,100417.75
2022-11-05T03:59:49.910Z,100427.47
2022-11-05T04:02:22.036Z,100423.84
2022-11-05T04:04:54.378Z,100420.16
2022-11-05T04:07:36.382Z,100422.66
2022-11-05T04:10:18.652Z,100423.53
2022-11-05T04:13:00.729Z,100432.25
2022-11-05T04:15:30.896Z,100427.84
2022-11-05T04:17:59.103Z,100433.13
2022-11-05T04:20:45.818Z,100438.38
2022-11-05T04:23:27.874Z,100434.88
2022-11-05T04:25:57.447Z,100437.59
2022-11-05T04:28:47.035Z,100436.78
2022-11-05T04:31:13.937Z,100443.06
2022-11-05T04:33:43.547Z,100443.13
2022-11-05T04:36:15.670Z,100443.22
2022-11-05T04:38:45.208Z,100446.81
2022-11-05T04:41:15.969Z,100454.00
2022-11-05T04:43:46.041Z,100452.47
2022-11-05T04:46:15.569Z,100449.22
2022-11-05T04:48:45.247Z,100453.88
2022-11-05T04:51:17.391Z,100457.63
2022-11-05T04:53:46.951Z,100459.69
2022-11-05T04:56:20.554Z,100453.78
2022-11-05T04:58:50.214Z,100454.03
2022-11-05T05:01:21.604Z,100456.88
2022-11-05T05:03:51.879Z,100451.84
2022-11-05T05:06:24.598Z,100453.75
2022-11-05T05:08:54.442Z,100453.00
2022-11-05T05:11:24.852Z,100449.59
2022-11-05T05:13:54.423Z,100448.78
2022-11-05T05:16:25.219Z,100455.84
2022-11-05T05:18:55.483Z,100460.28
2022-11-05T05:21:40.501Z,100458.56
2022-11-05T05:24:12.203Z,100465.59
2022-11-05T05:26:43.833Z,100464.78
2022-11-05T05:29:14.326Z,100461.34
2022-11-05T05:31:44.177Z,100469.25
2022-11-05T05:34:15.413Z,100476.34
2022-11-05T05:36:47.555Z,100478.09
2022-11-05T05:39:17.217Z,100472.94
2022-11-05T05:41:46.750Z,100481.72
2022-11-05T05:44:16.299Z,100476.56
2022-11-05T05:46:45.850Z,100474.81
2022-11-05T05:49:15.510Z,100481.81
2022-11-05T05:51:47.663Z,100478.38
2022-11-05T05:54:17.327Z,100485.47
2022-11-05T05:56:47.103Z,100489.91
2022-11-05T05:59:16.657Z,100498.72
2022-11-05T06:01:46.327Z,100491.75
2022-11-05T06:04:15.997Z,100497.00
2022-11-05T06:06:48.525Z,100505.75
2022-11-05T06:09:18.565Z,100510.13
2022-11-05T06:11:48.089Z,100511.84
2022-11-05T06:14:17.645Z,100519.75
2022-11-05T06:16:47.174Z,100518.94
2022-11-05T06:19:16.682Z,100523.28
2022-11-05T06:21:48.792Z,100522.44
2022-11-05T06:24:18.546Z,100525.94
2022-11-05T06:26:48.078Z,100529.44
2022-11-05T06:29:17.656Z,100524.16
2022-11-05T06:31:47.181Z,100519.78
2022-11-05T06:34:16.704Z,100520.63
2022-11-05T06:36:49.051Z,100527.63
2022-11-05T06:39:18.566Z,100531.13
2022-11-05T06:42:16.561Z,100534.66
2022-11-05T06:44:37.616Z,100536.44
2022-11-05T06:47:07.339Z,100538.22
2022-11-05T06:49:36.883Z,100539.13
2022-11-05T06:52:09.029Z,100540.88
2022-11-05T06:54:38.550Z,100542.59
2022-11-05T06:57:09.621Z,100541.66
2022-11-05T06:59:39.277Z,100549.47
2022-11-05T07:02:09.408Z,100550.28
2022-11-05T07:04:39.021Z,100553.69
2022-11-05T07:07:11.191Z,100557.97
2022-11-05T07:09:43.154Z,100568.38
2022-11-05T07:12:12.734Z,100569.25
2022-11-05T07:14:42.479Z,100570.03
2022-11-05T07:17:12.075Z,100572.53
2022-11-05T07:19:41.631Z,100574.19
2022-11-05T07:22:13.979Z,100575.88
2022-11-05T07:24:43.751Z,100579.25
2022-11-05T07:27:13.513Z,100584.41
2022-11-05T07:29:43.056Z,100586.91
2022-11-05T07:32:13.249Z,100588.56
2022-11-05T07:34:42.819Z,100586.66
2022-11-05T07:37:16.654Z,100589.94
2022-11-05T07:39:46.228Z,100590.56
2022-11-05T07:42:16.159Z,100593.78
2022-11-05T07:44:45.663Z,100595.28
2022-11-05T07:47:15.183Z,100601.03
2022-11-05T07:49:44.734Z,100595.22
2022-11-05T07:52:17.266Z,100598.19
2022-11-05T07:54:46.831Z,100595.22
2022-11-05T07:57:16.399Z,100587.78
2022-11-05T07:59:45.923Z,100595.78
2022-11-05T08:02:15.872Z,100590.28
2022-11-05T08:04:45.477Z,100594.47
2022-11-05T08:07:17.668Z,100594.03
2022-11-05T08:09:47.197Z,100596.34
2022-11-05T08:12:16.762Z,100599.78
2022-11-05T08:14:46.846Z,100606.63
2022-11-05T08:17:18.525Z,100595.09
2022-11-05T08:19:48.207Z,100596.41
2022-11-05T08:22:20.446Z,100606.75
2022-11-05T08:24:50.119Z,100606.59
2022-11-05T08:27:19.731Z,100597.28
2022-11-05T08:29:49.275Z,100605.31
2022-11-05T08:32:18.866Z,100602.31
2022-11-05T08:34:48.396Z,100601.66
2022-11-05T08:37:20.522Z,100593.25
2022-11-05T08:39:51.110Z,100599.28
2022-11-05T08:42:20.662Z,100600.03
2022-11-05T08:44:50.239Z,100594.22
2022-11-05T08:47:19.751Z,100601.41
2022-11-05T08:49:49.280Z,100598.91
2022-11-05T08:52:21.447Z,100605.13
2022-11-05T08:54:51.002Z,100604.22
2022-11-05T08:57:20.537Z,100601.50
2022-11-05T08:59:50.099Z,100607.00
2022-11-05T09:02:19.797Z,100605.41
2022-11-05T09:04:49.364Z,100607.44
2022-11-05T09:07:22.907Z,100613.66
2022-11-05T09:09:52.471Z,100610.59
2022-11-05T09:12:21.983Z,100606.50
2022-11-05T09:14:51.529Z,100606.06
2022-11-05T09:17:22.628Z,100606.72
2022-11-05T09:19:52.396Z,100618.91
2022-11-05T09:22:24.519Z,100611.31
2022-11-05T09:24:54.071Z,100614.63
2022-11-05T09:27:23.595Z,100620.44
2022-11-05T09:29:53.105Z,100621.22
2022-11-05T09:32:23.274Z,100628.91
2022-11-05T09:34:53.137Z,100620.09
2022-11-05T09:37:25.257Z,100622.25
2022-11-05T09:39:55.514Z,100619.16
2022-11-05T09:42:28.378Z,100629.09
2022-11-05T09:45:00.906Z,100633.25
2022-11-05T09:47:33.576Z,100632.81
2022-11-05T09:50:05.913Z,100639.47
2022-11-05T09:52:38.073Z,100642.66
2022-11-05T09:55:19.924Z,100628.38
2022-11-05T09:57:52.690Z,100637.00
2022-11-05T10:00:22.365Z,100635.63
2022-11-05T10:02:55.636Z,100636.38
2022-11-05T10:05:26.538Z,100633.13
2022-11-05T10:08:02.294Z,100635.00
2022-11-05T10:10:41.037Z,100642.47
2022-11-05T10:13:19.025Z,100642.91
2022-11-05T10:15:57.421Z,100641.56
2022-11-05T10:18:29.975Z,100641.09
2022-11-05T10:20:59.699Z,100647.06
2022-11-05T10:23:32.152Z,100645.47
2022-11-05T10:26:05.119Z,100651.75
2022-11-05T10:28:36.352Z,100650.75
2022-11-05T10:31:07.924Z,100647.00
2022-11-05T10:33:41.137Z,100646.59
2022-11-05T10:36:13.938Z,100651.34
2022-11-05T10:38:46.204Z,100652.34
2022-11-05T10:41:34.695Z,100657.56
2022-11-05T10:44:18.806Z,100661.03
2022-11-05T10:46:49.220Z,100652.25
2022-11-05T10:49:29.042Z,100655.06
2022-11-05T10:52:00.452Z,100664.88
2022-11-05T10:54:36.613Z,100664.97
2022-11-05T10:57:34.830Z,100665.88
2022-11-05T11:00:23.412Z,100669.06
2022-11-05T11:02:54.803Z,100665.16
2022-11-05T11:05:28.157Z,100658.53
2022-11-05T11:08:02.553Z,100660.44
2022-11-05T11:10:34.307Z,100657.19
2022-11-05T11:13:06.664Z,100656.00
2022-11-05T11:15:37.263Z,100653.06
2022-11-05T11:18:29.243Z,100644.75
2022-11-05T11:21:08.626Z,100640.91
2022-11-05T11:23:40.698Z,100648.72
2022-11-05T11:26:10.989Z,100645.97
2022-11-05T11:28:47.132Z,100642.94
2022-11-05T11:31:18.956Z,100640.78
2022-11-05T11:33:50.015Z,100636.94
2022-11-05T11:36:21.427Z,100636.78
2022-11-05T11:38:51.112Z,100636.38
2022-11-05T11:41:27.702Z,100642.38
2022-11-05T11:44:06.125Z,100643.25
2022-11-05T11:46:36.802Z,100638.78
2022-11-05T11:49:07.571Z,100642.38
2022-11-05T11:51:40.817Z,100633.47
2022-11-05T11:54:28.878Z,100633.56
2022-11-05T11:56:58.767Z,100636.38
2022-11-05T12:00:01.959Z,100636.63
2022-11-05T12:02:41.845Z,100636.97
2022-11-05T12:05:24.548Z,100629.00
2022-11-05T12:07:58.183Z,100631.75
2022-11-05T12:10:47.387Z,100629.97
2022-11-05T12:13:46.858Z,100634.41
2022-11-05T12:16:25.575Z,100645.97
2022-11-05T12:19:00.196Z,100626.44
2022-11-05T12:21:52.539Z,100632.31
2022-11-05T12:24:58.132Z,100627.50
2022-11-05T12:27:40.656Z,100632.47
2022-11-05T12:30:15.471Z,100632.88
2022-11-05T12:33:07.087Z,100625.97
2022-11-05T12:35:48.222Z,100627.09
2022-11-05T12:38:28.842Z,100618.66
2022-11-05T12:41:07.231Z,100620.16
2022-11-05T12:43:46.751Z,100621.00
2022-11-05T12:46:26.935Z,100620.31
2022-11-05T12:49:11.195Z,100616.13
2022-11-05T12:51:50.477Z,100614.56
2022-11-05T12:54:26.804Z,100614.72
2022-11-05T12:56:59.419Z,100614.72
2022-11-05T12:59:37.663Z,100614.66
2022-11-05T13:02:16.313Z,100615.53
2022-11-05T13:04:53.896Z,100610.22
2022-11-05T13:07:29.348Z,100605.81
2022-11-05T13:10:03.858Z,100600.81
2022-11-05T13:12:36.242Z,100600.19
2022-11-05T13:15:09.632Z,100592.44
2022-11-05T13:17:46.418Z,100589.09
2022-11-05T13:20:22.307Z,100585.72
2022-11-05T13:22:55.740Z,100588.56
2022-11-05T13:25:28.158Z,100596.00
2022-11-05T13:28:02.506Z,100601.69
2022-11-05T13:30:35.774Z,100598.28
2022-11-05T13:33:09.111Z,100600.25
2022-11-05T13:35:45.180Z,100595.03
2022-11-05T13:38:33.426Z,100591.56
2022-11-05T13:41:15.500Z,100586.34
2022-11-05T13:43:56.931Z,100589.00
2022-11-05T13:46:34.977Z,100575.63
2022-11-05T13:49:29.592Z,100573.06
2022-11-05T13:52:11.851Z,100572.41
2022-11-05T13:55:07.155Z,100580.81
2022-11-05T13:58:03.124Z,100574.34
2022-11-05T14:00:35.940Z,100571.44
2022-11-05T14:03:08.149Z,100564.22
2022-11-05T14:05:41.179Z,100567.28
2022-11-05T14:08:18.391Z,100565.75
2022-11-05T14:10:49.820Z,100565.84
2022-11-05T14:13:23.862Z,100562.31
2022-11-05T14:16:00.392Z,100565.84
2022-11-05T14:18:44.548Z,100562.38
2022-11-05T14:21:33.751Z,100561.47
2022-11-05T14:24:29.196Z,100554.34
2022-11-05T14:27:28.858Z,100554.34
2022-11-05T14:29:58.693Z,100558.81
2022-11-05T14:32:30.602Z,100559.72
2022-11-05T14:35:04.496Z,100561.53
2022-11-05T14:37:37.117Z,100547.38
2022-11-05T14:40:29.041Z,100541.38
2022-11-05T14:43:00.093Z,100545.16
2022-11-05T14:45:32.876Z,100548.00
2022-11-05T14:48:04.325Z,100537.56
2022-11-05T14:50:38.109Z,100539.47
2022-11-05T14:53:14.227Z,100536.09
2022-11-05T14:55:47.023Z,100534.53
2022-11-05T14:58:35.397Z,100534.63
2022-11-05T15:01:07.746Z,100530.41
2022-11-05T15:04:03.323Z,100549.09
2022-11-05T15:06:35.692Z,100551.06
2022-11-05T15:09:15.420Z,100548.63
2022-11-05T15:11:52.855Z,100558.50
2022-11-05T15:14:27.313Z,100547.22
2022-11-05T15:16:58.567Z,100554.47
2022-11-05T15:19:32.189Z,100559.94
2022-11-05T15:22:04.465Z,100553.94
2022-11-05T15:24:34.302Z,100560.22
2022-11-05T15:27:10.660Z,100556.97
2022-11-05T15:29:41.334Z,100561.56
2022-11-05T15:32:17.771Z,100561.66
2022-11-05T15:34:53.773Z,100553.78
2022-11-05T15:37:25.465Z,100558.28
2022-11-05T15:39:56.535Z,100554.88
2022-11-05T15:42:29.895Z,100561.31
2022-11-05T15:45:00.653Z,100556.09
2022-11-05T15:47:31.103Z,100547.44
2022-11-05T15:50:02.070Z,100550.22
2022-11-05T15:52:36.569Z,100549.34
2022-11-05T15:55:12.073Z,100546.72
2022-11-05T15:57:50.372Z,100553.81
2022-11-05T16:00:24.033Z,100556.47
2022-11-05T16:02:56.321Z,100559.13
2022-11-05T16:05:26.487Z,100557.41
2022-11-05T16:07:56.093Z,100560.88
2022-11-05T16:10:31.514Z,100566.16
2022-11-05T16:13:24.235Z,100560.81
2022-11-05T16:15:57.537Z,100559.09
2022-11-05T16:18:28.542Z,100563.50
2022-11-05T16:21:06.117Z,100564.38
2022-11-05T16:23:47.557Z,100568.84
2022-11-05T16:27:01.248Z,100552.22
2022-11-05T16:29:28.891Z,100564.78
2022-11-05T16:31:59.617Z,100563.13
2022-11-05T16:34:30.711Z,100561.44
2022-11-05T16:37:00.949Z,100565.81
2022-11-05T16:39:30.514Z,100563.19
2022-11-05T16:42:00.523Z,100562.25
2022-11-05T16:44:33.065Z,100561.31
2022-11-05T16:47:02.654Z,100566.56
2022-11-05T16:49:32.211Z,100574.56
2022-11-05T16:52:02.222Z,100568.53
2022-11-05T16:54:31.775Z,100570.44
2022-11-05T16:57:01.747Z,100567.91
2022-11-05T16:59:34.137Z,100568.03
2022-11-05T17:02:04.132Z,100563.78
2022-11-05T17:04:33.872Z,100572.72
2022-11-05T17:07:03.829Z,100570.16
2022-11-05T17:09:33.997Z,100579.97
2022-11-05T17:12:03.590Z,100575.66
2022-11-05T17:14:35.707Z,100575.78
2022-11-05T17:17:05.586Z,100572.31
2022-11-05T17:19:35.562Z,100572.31
2022-11-05T17:22:05.119Z,100570.56
2022-11-05T17:24:34.999Z,100577.59
2022-11-05T17:27:04.554Z,100566.16
2022-11-05T17:29:36.728Z,100581.16
2022-11-05T17:32:08.026Z,100572.44
2022-11-05T17:34:37.715Z,100580.50
2022-11-05T17:37:07.276Z,100579.59
2022-11-05T17:39:36.795Z,100570.94
2022-11-05T17:42:06.931Z,100571.88
2022-11-05T17:44:39.470Z,100571.00
2022-11-05T17:47:09.062Z,100580.78
2022-11-05T17:49:38.665Z,100576.44
2022-11-05T17:52:08.460Z,100573.03
2022-11-05T17:54:38.041Z,100574.84
2022-11-05T17:57:07.733Z,100574.97
2022-11-05T17:59:39.874Z,100566.22
2022-11-05T18:02:09.627Z,100576.00
2022-11-05T18:04:39.546Z,100582.19
2022-11-05T18:07:09.591Z,100580.47
2022-11-05T18:09:39.231Z,100581.34
2022-11-05T18:12:10.308Z,100585.72
2022-11-05T18:14:42.472Z,100583.94
2022-11-05T18:17:12.469Z,100586.47
2022-11-05T18:19:41.996Z,100587.38
2022-11-05T18:22:11.555Z,100592.66
2022-11-05T18:24:41.256Z,100597.91
2022-11-05T18:27:10.872Z,100591.75
2022-11-05T18:29:43.059Z,100585.66
2022-11-05T18:32:12.619Z,100587.50
2022-11-05T18:34:42.280Z,100598.19
2022-11-05T18:37:11.840Z,100588.59
2022-11-05T18:39:41.413Z,100586.06
2022-11-05T18:42:11.229Z,100589.69
2022-11-05T18:44:43.370Z,100583.63
2022-11-05T18:47:12.993Z,100587.25
2022-11-05T18:49:42.695Z,100585.56
2022-11-05T18:52:12.301Z,100585.63
2022-11-05T18:54:41.822Z,100586.66
2022-11-05T18:57:11.499Z,100585.81
2022-11-05T18:59:46.765Z,100585.88
2022-11-05T19:02:19.172Z,100576.31
2022-11-05T19:05:14.025Z,100579.03
2022-11-05T19:07:39.065Z,100578.31
2022-11-05T19:10:10.422Z,100576.56
2022-11-05T19:12:40.030Z,100574.00
2022-11-05T19:15:13.336Z,100585.41
2022-11-05T19:17:43.011Z,100581.06
2022-11-05T19:20:13.572Z,100586.34
2022-11-05T19:22:43.132Z,100576.69
2022-11-05T19:25:12.687Z,100582.88
2022-11-05T19:27:43.678Z,100584.69
2022-11-05T19:30:16.283Z,100589.16
2022-11-05T19:32:45.834Z,100585.72
2022-11-05T19:35:15.407Z,100590.09
2022-11-05T19:37:45.109Z,100581.50
2022-11-05T19:40:15.137Z,100589.47
2022-11-05T19:42:44.689Z,100586.94
2022-11-05T19:45:42.877Z,100596.69
2022-11-05T19:48:07.344Z,100598.53
2022-11-05T19:50:42.615Z,100600.38
2022-11-05T19:53:12.797Z,100602.19
2022-11-05T19:55:44.993Z,100598.75
2022-11-05T19:58:15.108Z,100588.25
2022-11-05T20:00:47.317Z,100593.66
2022-11-05T20:03:16.937Z,100588.59
2022-11-05T20:05:46.524Z,100580.81
2022-11-05T20:08:16.344Z,100587.16
2022-11-05T20:10:46.274Z,100584.63
2022-11-05T20:13:19.815Z,100589.09
2022-11-05T20:15:52.658Z,100588.34
2022-11-05T20:18:22.362Z,100586.72
2022-11-05T20:20:52.008Z,100573.53
2022-11-05T20:23:21.576Z,100587.66
2022-11-05T20:25:51.135Z,100589.47
2022-11-05T20:28:20.679Z,100596.50
2022-11-05T20:30:52.951Z,100602.63
2022-11-05T20:33:22.745Z,100597.34
2022-11-05T20:35:52.320Z,100596.50
2022-11-05T20:38:21.884Z,100593.81
2022-11-05T20:40:52.453Z,100592.94
2022-11-05T20:43:24.807Z,100594.66
2022-11-05T20:46:02.256Z,100580.59
2022-11-05T20:48:34.074Z,100584.09
2022-11-05T20:51:07.871Z,100582.38
2022-11-05T20:53:37.468Z,100587.72
2022-11-05T20:56:09.394Z,100584.25
2022-11-05T20:58:40.295Z,100586.94
2022-11-05T21:01:15.674Z,100589.69
2022-11-05T21:03:45.895Z,100588.88
2022-11-05T21:06:16.236Z,100580.25
2022-11-05T21:08:46.314Z,100590.13
2022-11-05T21:11:15.867Z,100584.16
2022-11-05T21:13:45.452Z,100585.16
2022-11-05T21:16:19.004Z,100590.50
2022-11-05T21:18:49.271Z,100603.75
2022-11-05T21:21:20.694Z,100609.94
2022-11-05T21:23:50.674Z,100604.63
2022-11-05T21:26:20.362Z,100607.22
2022-11-05T21:28:52.199Z,100608.03
2022-11-05T21:31:24.382Z,100613.19
2022-11-05T21:33:55.341Z,100617.63
2022-11-05T21:36:25.131Z,100610.66
2022-11-05T21:38:54.676Z,100607.28
2022-11-05T21:41:24.281Z,100604.84
2022-11-05T21:43:53.837Z,100603.31
2022-11-05T21:46:26.043Z,100596.53
2022-11-05T21:48:55.613Z,100600.28
2022-11-05T21:51:37.975Z,100587.25
2022-11-05T21:54:20.012Z,100575.13
2022-11-05T21:57:02.925Z,100558.53
2022-11-05T21:59:46.367Z,100562.03
2022-11-05T22:02:19.983Z,100553.16
2022-11-05T22:04:51.067Z,100554.06
2022-11-05T22:07:22.516Z,100552.34
2022-11-05T22:09:52.468Z,100558.53
2022-11-05T22:12:22.215Z,100558.59
2022-11-05T22:14:51.780Z,100545.47
2022-11-05T22:17:24.295Z,100542.88
2022-11-05T22:19:53.975Z,100543.78
2022-11-05T22:22:23.867Z,100554.38
2022-11-05T22:24:53.647Z,100550.03
2022-11-05T22:27:24.238Z,100550.06
2022-11-05T22:29:53.839Z,100551.94
2022-11-05T22:32:26.008Z,100552.00
2022-11-05T22:34:55.532Z,100545.09
2022-11-05T22:37:25.447Z,100544.28
2022-11-05T22:39:54.996Z,100545.34
2022-11-05T22:42:24.683Z,100529.69
2022-11-05T22:44:54.268Z,100535.09
2022-11-05T22:47:26.474Z,100525.59
2022-11-05T22:49:56.000Z,100531.94
2022-11-05T22:52:25.608Z,100532.03
2022-11-05T22:54:55.167Z,100528.63
2022-11-05T22:57:24.754Z,100517.31
2022-11-05T22:59:54.305Z,100516.47
2022-11-05T23:02:26.586Z,100515.72
2022-11-05T23:04:56.229Z,100516.69
2022-11-05T23:07:38.260Z,100508.00
2022-11-05T23:10:21.179Z,100505.47
2022-11-05T23:12:50.758Z,100505.56
2022-11-05T23:15:32.547Z,100516.09
2022-11-05T23:18:17.213Z,100515.25
2022-11-05T23:20:59.267Z,100515.25
2022-11-05T23:23:41.353Z,100508.25
2022-11-05T23:26:23.224Z,100503.06
2022-11-05T23:28:52.794Z,100496.94
2022-11-05T23:31:34.822Z,100489.91
2022-11-05T23:34:07.150Z,100497.00
2022-11-05T23:36:49.182Z,100499.63
2022-11-05T23:39:18.833Z,100501.41
2022-11-05T23:42:00.879Z,100497.06
2022-11-05T23:44:42.907Z,100497.16
2022-11-05T23:47:27.534Z,100498.13
2022-11-05T23:49:59.908Z,100492.06
2022-11-05T23:52:29.497Z,100485.09
2022-11-05T23:54:59.079Z,100480.69
2022-11-05T23:57:28.736Z,100482.44
2022-11-05T23:59:58.311Z,100488.59
